Wes Sellars — WDF9302 — position and weather

sailwx.info

Track history (hours):
 
Tides and Currents Weather Stations Pressure Air Temp Water Temp Dewpoint Dewpoint Depression Visibility Wind Speed Wind Dir Waves Ship Positions

Wes Sellars

Owner: Florida Marine, LLC, Mandeville, LA. More information available from US FCC via Universal Licensing System and Coast Guard Vessel Documentation Center.

Last reported at 2017-Mar-26 02:21 UTC. Time now 2017-Mar-26 09:16 UTC.
Position N 29°44' W 095°12'.

Length 27 m.

Type: Towing. MMSI: 367503760.

Date/timePositionNaut miles runAvg speedWind from/ knotsBaromVisibWave heightAir tempDewpointWater temp
2017-Mar-26 02:21N 29°44' W 095°12'0 0.0
2017-Mar-25 22:25N 29°44' W 095°12'0 0.0
2017-Mar-25 18:24N 29°44' W 095°12'0 0.0
2017-Mar-25 07:25N 29°44' W 095°12'0 0.0
2017-Mar-24 10:24N 29°44' W 095°12'0 0.0
2017-Mar-23 19:33N 29°44' W 095°12'2 1.9
2017-Mar-23 18:31N 29°45' W 095°10'1 1.4
2017-Mar-23 17:32N 29°45' W 095°11'1 1.3
2017-Mar-23 16:26N 29°45' W 095°10'1 1.5
2017-Mar-23 15:27N 29°46' W 095°12'1 0.8
2017-Mar-23 14:26N 29°45' W 095°11'1 0.7
2017-Mar-23 13:19N 29°46' W 095°12'1 1.3
2017-Mar-23 12:26N 29°45' W 095°10'0 0.3
2017-Mar-23 11:33N 29°45' W 095°10'3 3.1
2017-Mar-23 10:33N 29°44' W 095°07'5 4.8
2017-Mar-23 09:33N 29°43' W 095°01'6 5.9
2017-Mar-23 08:33N 29°38' W 094°58'8 7.5
2017-Mar-23 07:33N 29°32' W 094°53'66 4.1
2017-Mar-22 15:29N 30°01' W 093°45'4 0.7
2017-Mar-22 10:32N 30°03' W 093°42'4 4.0
2017-Mar-22 09:33N 30°04' W 093°38'3 3.3
2017-Mar-22 08:33N 30°04' W 093°34'3 2.8
2017-Mar-22 07:33N 30°04' W 093°30'3 3.4
2017-Mar-22 06:33N 30°04' W 093°27'3 3.3
2017-Mar-22 05:33N 30°04' W 093°23'3 3.2
2017-Mar-22 04:33N 30°05' W 093°20'3 2.8
2017-Mar-22 03:33N 30°08' W 093°19'0 0.1
2017-Mar-22 02:33N 30°08' W 093°19'0 0.0
2017-Mar-22 01:33N 30°08' W 093°19'0 0.0
2017-Mar-22 00:33N 30°08' W 093°19'0 0.0
2017-Mar-21 23:33N 30°08' W 093°19'0 0.0
2017-Mar-21 22:33N 30°08' W 093°19'0 0.0
2017-Mar-21 21:33N 30°08' W 093°19'0 0.0
2017-Mar-21 20:33N 30°08' W 093°19'0 0.0
2017-Mar-21 19:33N 30°08' W 093°19'0 0.0
2017-Mar-21 18:33N 30°08' W 093°19'0 0.0
2017-Mar-21 17:33N 30°08' W 093°19'0 0.0
2017-Mar-21 16:33N 30°08' W 093°19'0 0.0
2017-Mar-21 15:33N 30°08' W 093°19'0 0.0
2017-Mar-21 14:33N 30°08' W 093°19'0 0.0
2017-Mar-21 13:33N 30°08' W 093°19'0 0.0
2017-Mar-21 12:33N 30°08' W 093°19'0 0.0
2017-Mar-21 11:33N 30°08' W 093°19'0 0.0
2017-Mar-21 10:33N 30°08' W 093°19'0 0.0
2017-Mar-21 09:33N 30°08' W 093°19'0 0.0
2017-Mar-21 08:33N 30°08' W 093°19'0 0.0
2017-Mar-21 07:33N 30°08' W 093°19'0 0.0
2017-Mar-21 06:33N 30°08' W 093°19'0 0.0
2017-Mar-21 05:33N 30°08' W 093°19'0 0.0
2017-Mar-21 04:33N 30°08' W 093°19'0 0.0
2017-Mar-21 03:33N 30°08' W 093°19'0 0.2
2017-Mar-21 02:34N 30°08' W 093°19'0 0.0
2017-Mar-21 01:33N 30°08' W 093°19'3 3.1
2017-Mar-21 00:33N 30°05' W 093°20'0 0.0
2017-Mar-20 23:33N 30°05' W 093°20'0 0.0
2017-Mar-20 22:33N 30°05' W 093°20'0 0.0
2017-Mar-20 21:33N 30°05' W 093°20'0 0.0
2017-Mar-20 20:33N 30°05' W 093°20'0 0.0
2017-Mar-20 19:33N 30°05' W 093°20'0 0.0
2017-Mar-20 18:33N 30°05' W 093°20'0 0.0
2017-Mar-20 17:33N 30°05' W 093°20'0 0.0
2017-Mar-20 16:33N 30°05' W 093°20'0 0.0
2017-Mar-20 15:33N 30°05' W 093°20'0 0.0
2017-Mar-20 14:33N 30°05' W 093°20'0 0.0
2017-Mar-20 13:33N 30°05' W 093°20'0 0.0
2017-Mar-20 12:33N 30°05' W 093°20'0 0.0
2017-Mar-20 11:33N 30°05' W 093°20'0 0.0
2017-Mar-20 10:33N 30°05' W 093°20'0 0.0
2017-Mar-20 09:33N 30°05' W 093°20'0 0.0
2017-Mar-20 08:33N 30°05' W 093°20'0 0.0
2017-Mar-20 07:33N 30°05' W 093°20'0 0.0
2017-Mar-20 06:33N 30°05' W 093°20'0 0.0
2017-Mar-20 05:33N 30°05' W 093°20'0 0.0
2017-Mar-20 04:33N 30°05' W 093°20'0 0.0
2017-Mar-20 03:33N 30°05' W 093°20'0 0.0
2017-Mar-20 02:33N 30°05' W 093°20'0 0.0
2017-Mar-20 01:33N 30°05' W 093°20'0 0.5
2017-Mar-20 00:33N 30°05' W 093°19'0 0.5
2017-Mar-19 23:33N 30°05' W 093°20'0 0.0
2017-Mar-19 22:33N 30°05' W 093°20'0 0.0
2017-Mar-19 21:33N 30°05' W 093°20'0 0.0
2017-Mar-19 20:33N 30°05' W 093°20'0 0.0
2017-Mar-19 19:33N 30°05' W 093°20'0 0.0
2017-Mar-19 18:33N 30°05' W 093°20'0 0.0
2017-Mar-19 17:33N 30°05' W 093°20'0 0.0
2017-Mar-19 16:33N 30°05' W 093°20'0 0.0
2017-Mar-19 15:33N 30°05' W 093°20'0 0.0
2017-Mar-19 14:33N 30°05' W 093°20'0 0.0
2017-Mar-19 13:33N 30°05' W 093°20'0 0.0
2017-Mar-19 12:33N 30°05' W 093°20'1 0.8
2017-Mar-19 11:33N 30°04' W 093°20'5 5.0
2017-Mar-19 10:33N 30°04' W 093°26'3 2.8
2017-Mar-19 09:33N 30°04' W 093°29'4 4.1
2017-Mar-19 08:33N 30°04' W 093°34'6 5.7
2017-Mar-19 07:29N 30°03' W 093°41'7 5.7
2017-Mar-19 06:17N 29°59' W 093°47'4 5.5
2017-Mar-19 05:28N 29°59' W 093°52'0 0.3
2017-Mar-19 04:29N 29°59' W 093°53'11 0.2
2017-Mar-17 04:33N 30°04' W 093°41'6 5.5
2017-Mar-17 03:33N 30°04' W 093°35'5 5.1
2017-Mar-17 02:33N 30°04' W 093°29'5 5.1
2017-Mar-17 01:33N 30°04' W 093°23'4 3.7
2017-Mar-17 00:33N 30°06' W 093°20'2 2.5
2017-Mar-16 23:33N 30°08' W 093°19'0 0.1
2017-Mar-16 22:33N 30°08' W 093°19'0 0.0
2017-Mar-16 21:33N 30°08' W 093°19'0 0.0
2017-Mar-16 20:33N 30°08' W 093°19'0 0.0
2017-Mar-16 19:34N 30°08' W 093°19'0 0.0
2017-Mar-16 18:33N 30°08' W 093°19'0 0.0
2017-Mar-16 17:33N 30°08' W 093°19'0 0.0
2017-Mar-16 16:33N 30°08' W 093°19'0 0.0
2017-Mar-16 15:33N 30°08' W 093°19'0 0.0
2017-Mar-16 14:33N 30°08' W 093°19'0 0.0
2017-Mar-16 13:33N 30°08' W 093°19'0 0.0
2017-Mar-16 12:33N 30°08' W 093°19'0 0.0
2017-Mar-16 11:33N 30°08' W 093°19'0 0.0
2017-Mar-16 10:33N 30°08' W 093°19'0 0.0
2017-Mar-16 09:33N 30°08' W 093°19'0 0.0
2017-Mar-16 08:33N 30°08' W 093°19'0 0.0
2017-Mar-16 07:33N 30°08' W 093°19'0 0.0
2017-Mar-16 06:33N 30°08' W 093°19'0 0.0
2017-Mar-16 05:33N 30°08' W 093°19'0 0.0
2017-Mar-16 04:33N 30°08' W 093°19'0 0.0
2017-Mar-16 03:33N 30°08' W 093°19'0 0.0
2017-Mar-16 02:33N 30°08' W 093°19'  
Track history (hours):
 
Tides and Currents Weather Stations Pressure Air Temp Water Temp Dewpoint Dewpoint Depression Visibility Wind Speed Wind Dir Waves Ship Positions

Wes Sellars

Owner: Florida Marine, LLC, Mandeville, LA. More information available from US FCC via Universal Licensing System and Coast Guard Vessel Documentation Center.

Last reported at 2017-Mar-26 02:21 UTC. Time now 2017-Mar-26 09:16 UTC.
Position N 29°44' W 095°12'.

Length 27 m.

Type: Towing. MMSI: 367503760.

Date/timePositionNaut miles runAvg speedWind from/ knotsBaromVisibWave heightAir tempDewpointWater temp
2017-Mar-26 02:21N 29°44' W 095°12'0 0.0
2017-Mar-25 22:25N 29°44' W 095°12'0 0.0
2017-Mar-25 18:24N 29°44' W 095°12'0 0.0
2017-Mar-25 07:25N 29°44' W 095°12'0 0.0
2017-Mar-24 10:24N 29°44' W 095°12'0 0.0
2017-Mar-23 19:33N 29°44' W 095°12'2 1.9
2017-Mar-23 18:31N 29°45' W 095°10'1 1.4
2017-Mar-23 17:32N 29°45' W 095°11'1 1.3
2017-Mar-23 16:26N 29°45' W 095°10'1 1.5
2017-Mar-23 15:27N 29°46' W 095°12'1 0.8
2017-Mar-23 14:26N 29°45' W 095°11'1 0.7
2017-Mar-23 13:19N 29°46' W 095°12'1 1.3
2017-Mar-23 12:26N 29°45' W 095°10'0 0.3
2017-Mar-23 11:33N 29°45' W 095°10'3 3.1
2017-Mar-23 10:33N 29°44' W 095°07'5 4.8
2017-Mar-23 09:33N 29°43' W 095°01'6 5.9
2017-Mar-23 08:33N 29°38' W 094°58'8 7.5
2017-Mar-23 07:33N 29°32' W 094°53'66 4.1
2017-Mar-22 15:29N 30°01' W 093°45'4 0.7
2017-Mar-22 10:32N 30°03' W 093°42'4 4.0
2017-Mar-22 09:33N 30°04' W 093°38'3 3.3
2017-Mar-22 08:33N 30°04' W 093°34'3 2.8
2017-Mar-22 07:33N 30°04' W 093°30'3 3.4
2017-Mar-22 06:33N 30°04' W 093°27'3 3.3
2017-Mar-22 05:33N 30°04' W 093°23'3 3.2
2017-Mar-22 04:33N 30°05' W 093°20'3 2.8
2017-Mar-22 03:33N 30°08' W 093°19'0 0.1
2017-Mar-22 02:33N 30°08' W 093°19'0 0.0
2017-Mar-22 01:33N 30°08' W 093°19'0 0.0
2017-Mar-22 00:33N 30°08' W 093°19'0 0.0
2017-Mar-21 23:33N 30°08' W 093°19'0 0.0
2017-Mar-21 22:33N 30°08' W 093°19'0 0.0
2017-Mar-21 21:33N 30°08' W 093°19'0 0.0
2017-Mar-21 20:33N 30°08' W 093°19'0 0.0
2017-Mar-21 19:33N 30°08' W 093°19'0 0.0
2017-Mar-21 18:33N 30°08' W 093°19'0 0.0
2017-Mar-21 17:33N 30°08' W 093°19'0 0.0
2017-Mar-21 16:33N 30°08' W 093°19'0 0.0
2017-Mar-21 15:33N 30°08' W 093°19'0 0.0
2017-Mar-21 14:33N 30°08' W 093°19'0 0.0
2017-Mar-21 13:33N 30°08' W 093°19'0 0.0
2017-Mar-21 12:33N 30°08' W 093°19'0 0.0
2017-Mar-21 11:33N 30°08' W 093°19'0 0.0
2017-Mar-21 10:33N 30°08' W 093°19'0 0.0
2017-Mar-21 09:33N 30°08' W 093°19'0 0.0
2017-Mar-21 08:33N 30°08' W 093°19'0 0.0
2017-Mar-21 07:33N 30°08' W 093°19'0 0.0
2017-Mar-21 06:33N 30°08' W 093°19'0 0.0
2017-Mar-21 05:33N 30°08' W 093°19'0 0.0
2017-Mar-21 04:33N 30°08' W 093°19'0 0.0
2017-Mar-21 03:33N 30°08' W 093°19'0 0.2
2017-Mar-21 02:34N 30°08' W 093°19'0 0.0
2017-Mar-21 01:33N 30°08' W 093°19'3 3.1
2017-Mar-21 00:33N 30°05' W 093°20'0 0.0
2017-Mar-20 23:33N 30°05' W 093°20'0 0.0
2017-Mar-20 22:33N 30°05' W 093°20'0 0.0
2017-Mar-20 21:33N 30°05' W 093°20'0 0.0
2017-Mar-20 20:33N 30°05' W 093°20'0 0.0
2017-Mar-20 19:33N 30°05' W 093°20'0 0.0
2017-Mar-20 18:33N 30°05' W 093°20'0 0.0
2017-Mar-20 17:33N 30°05' W 093°20'0 0.0
2017-Mar-20 16:33N 30°05' W 093°20'0 0.0
2017-Mar-20 15:33N 30°05' W 093°20'0 0.0
2017-Mar-20 14:33N 30°05' W 093°20'0 0.0
2017-Mar-20 13:33N 30°05' W 093°20'0 0.0
2017-Mar-20 12:33N 30°05' W 093°20'0 0.0
2017-Mar-20 11:33N 30°05' W 093°20'0 0.0
2017-Mar-20 10:33N 30°05' W 093°20'0 0.0
2017-Mar-20 09:33N 30°05' W 093°20'0 0.0
2017-Mar-20 08:33N 30°05' W 093°20'0 0.0
2017-Mar-20 07:33N 30°05' W 093°20'0 0.0
2017-Mar-20 06:33N 30°05' W 093°20'0 0.0
2017-Mar-20 05:33N 30°05' W 093°20'0 0.0
2017-Mar-20 04:33N 30°05' W 093°20'0 0.0
2017-Mar-20 03:33N 30°05' W 093°20'0 0.0
2017-Mar-20 02:33N 30°05' W 093°20'0 0.0
2017-Mar-20 01:33N 30°05' W 093°20'0 0.5
2017-Mar-20 00:33N 30°05' W 093°19'0 0.5
2017-Mar-19 23:33N 30°05' W 093°20'0 0.0
2017-Mar-19 22:33N 30°05' W 093°20'0 0.0
2017-Mar-19 21:33N 30°05' W 093°20'0 0.0
2017-Mar-19 20:33N 30°05' W 093°20'0 0.0
2017-Mar-19 19:33N 30°05' W 093°20'0 0.0
2017-Mar-19 18:33N 30°05' W 093°20'0 0.0
2017-Mar-19 17:33N 30°05' W 093°20'0 0.0
2017-Mar-19 16:33N 30°05' W 093°20'0 0.0
2017-Mar-19 15:33N 30°05' W 093°20'0 0.0
2017-Mar-19 14:33N 30°05' W 093°20'0 0.0
2017-Mar-19 13:33N 30°05' W 093°20'0 0.0
2017-Mar-19 12:33N 30°05' W 093°20'1 0.8
2017-Mar-19 11:33N 30°04' W 093°20'5 5.0
2017-Mar-19 10:33N 30°04' W 093°26'3 2.8
2017-Mar-19 09:33N 30°04' W 093°29'4 4.1
2017-Mar-19 08:33N 30°04' W 093°34'6 5.7
2017-Mar-19 07:29N 30°03' W 093°41'7 5.7
2017-Mar-19 06:17N 29°59' W 093°47'4 5.5
2017-Mar-19 05:28N 29°59' W 093°52'0 0.3
2017-Mar-19 04:29N 29°59' W 093°53'11 0.2
2017-Mar-17 04:33N 30°04' W 093°41'6 5.5
2017-Mar-17 03:33N 30°04' W 093°35'5 5.1
2017-Mar-17 02:33N 30°04' W 093°29'5 5.1
2017-Mar-17 01:33N 30°04' W 093°23'4 3.7
2017-Mar-17 00:33N 30°06' W 093°20'2 2.5
2017-Mar-16 23:33N 30°08' W 093°19'0 0.1
2017-Mar-16 22:33N 30°08' W 093°19'0 0.0
2017-Mar-16 21:33N 30°08' W 093°19'0 0.0
2017-Mar-16 20:33N 30°08' W 093°19'0 0.0
2017-Mar-16 19:34N 30°08' W 093°19'0 0.0
2017-Mar-16 18:33N 30°08' W 093°19'0 0.0
2017-Mar-16 17:33N 30°08' W 093°19'0 0.0
2017-Mar-16 16:33N 30°08' W 093°19'0 0.0
2017-Mar-16 15:33N 30°08' W 093°19'0 0.0
2017-Mar-16 14:33N 30°08' W 093°19'0 0.0
2017-Mar-16 13:33N 30°08' W 093°19'0 0.0
2017-Mar-16 12:33N 30°08' W 093°19'0 0.0
2017-Mar-16 11:33N 30°08' W 093°19'0 0.0
2017-Mar-16 10:33N 30°08' W 093°19'0 0.0
2017-Mar-16 09:33N 30°08' W 093°19'0 0.0
2017-Mar-16 08:33N 30°08' W 093°19'0 0.0
2017-Mar-16 07:33N 30°08' W 093°19'0 0.0
2017-Mar-16 06:33N 30°08' W 093°19'0 0.0
2017-Mar-16 05:33N 30°08' W 093°19'0 0.0
2017-Mar-16 04:33N 30°08' W 093°19'0 0.0
2017-Mar-16 03:33N 30°08' W 093°19'0 0.0
2017-Mar-16 02:33N 30°08' W 093°19'  

Dump ship's entire track history